createdAt,value
2023-04-09T00:00:40.569Z,38.20
2023-04-09T00:03:07.327Z,34.63
2023-04-09T00:05:33.931Z,34.33
2023-04-09T00:08:00.528Z,34.83
2023-04-09T00:10:27.262Z,38.50
2023-04-09T00:12:53.902Z,34.77
2023-04-09T00:15:30.035Z,36.70
2023-04-09T00:17:58.143Z,33.20
2023-04-09T00:20:24.769Z,34.07
2023-04-09T00:22:52.409Z,37.83
2023-04-09T00:25:20.136Z,37.23
2023-04-09T00:27:47.138Z,37.33
2023-04-09T00:30:13.922Z,37.00
2023-04-09T00:32:40.770Z,37.90
2023-04-09T00:35:07.746Z,37.27
2023-04-09T00:37:34.790Z,37.23
2023-04-09T00:40:01.447Z,36.70
2023-04-09T00:42:32.352Z,37.53
2023-04-09T00:44:59.468Z,34.80
2023-04-09T00:47:28.387Z,35.23
2023-04-09T00:49:55.794Z,37.10
2023-04-09T00:52:23.265Z,35.20
2023-04-09T00:54:51.137Z,34.20
2023-04-09T00:57:18.757Z,33.73
2023-04-09T00:59:45.888Z,33.77
2023-04-09T01:02:12.789Z,35.37
2023-04-09T01:04:42.668Z,36.20
2023-04-09T01:07:48.002Z,35.60
2023-04-09T01:10:38.438Z,36.70
2023-04-09T01:13:20.083Z,36.23
2023-04-09T01:15:56.357Z,36.80
2023-04-09T01:18:44.587Z,33.43
2023-04-09T01:21:15.000Z,32.27
2023-04-09T01:24:09.864Z,34.97
2023-04-09T01:27:03.207Z,32.17
2023-04-09T01:29:41.760Z,34.10
2023-04-09T01:32:09.385Z,33.00
2023-04-09T01:34:36.770Z,32.03
2023-04-09T01:37:04.361Z,35.97
2023-04-09T01:39:31.580Z,34.37
2023-04-09T01:41:58.311Z,34.83
2023-04-09T01:44:26.425Z,34.90
2023-04-09T01:46:55.449Z,39.40
2023-04-09T01:49:22.817Z,37.57
2023-04-09T01:51:50.401Z,34.90
2023-04-09T01:54:17.463Z,37.20
2023-04-09T01:56:46.048Z,39.13
2023-04-09T01:59:13.095Z,37.67
2023-04-09T02:01:54.904Z,36.03
2023-04-09T02:04:39.101Z,37.20
2023-04-09T02:07:35.329Z,39.80
2023-04-09T02:10:02.661Z,37.93
2023-04-09T02:12:31.867Z,37.77
2023-04-09T02:15:01.158Z,37.67
2023-04-09T02:17:27.702Z,36.83
2023-04-09T02:19:54.531Z,39.07
2023-04-09T02:22:21.156Z,35.00
2023-04-09T02:24:47.730Z,36.73
2023-04-09T02:27:14.562Z,37.50
2023-04-09T02:29:41.372Z,37.13
2023-04-09T02:32:08.316Z,36.77
2023-04-09T02:34:34.980Z,36.73
2023-04-09T02:37:01.564Z,35.73
2023-04-09T02:39:28.101Z,35.57
2023-04-09T02:41:54.678Z,36.83
2023-04-09T02:44:21.219Z,34.73
2023-04-09T02:46:49.549Z,35.30
2023-04-09T02:49:16.646Z,36.07
2023-04-09T02:51:43.257Z,35.07
2023-04-09T02:54:09.810Z,35.37
2023-04-09T02:56:36.388Z,34.40
2023-04-09T02:59:02.970Z,33.70
2023-04-09T03:01:29.628Z,33.37
2023-04-09T03:03:56.393Z,37.73
2023-04-09T03:06:23.272Z,36.20
2023-04-09T03:08:49.925Z,33.53
2023-04-09T03:11:16.667Z,35.10
2023-04-09T03:13:43.304Z,32.67
2023-04-09T03:16:10.556Z,32.40
2023-04-09T03:18:37.368Z,33.93
2023-04-09T03:21:07.966Z,33.57
2023-04-09T03:23:35.313Z,34.03
2023-04-09T03:26:06.417Z,36.20
2023-04-09T03:28:33.179Z,36.07
2023-04-09T03:30:59.738Z,35.17
2023-04-09T03:33:26.460Z,34.40
2023-04-09T03:35:53.239Z,35.20
2023-04-09T03:38:20.167Z,35.63
2023-04-09T03:40:46.977Z,33.57
2023-04-09T03:43:13.539Z,31.73
2023-04-09T03:45:40.131Z,33.10
2023-04-09T03:48:06.801Z,34.93
2023-04-09T03:50:41.073Z,33.93
2023-04-09T03:53:08.184Z,33.57
2023-04-09T03:55:34.917Z,32.93
2023-04-09T03:58:01.485Z,30.43
2023-04-09T04:00:28.176Z,31.73
2023-04-09T04:02:54.988Z,32.43
2023-04-09T04:05:24.598Z,31.80
2023-04-09T04:07:51.288Z,31.67
2023-04-09T04:10:18.177Z,31.67
2023-04-09T04:12:44.777Z,31.87
2023-04-09T04:15:11.688Z,40.07
2023-04-09T04:17:38.323Z,32.80
2023-04-09T04:20:05.239Z,34.37
2023-04-09T04:22:31.860Z,32.13
2023-04-09T04:24:58.451Z,32.97
2023-04-09T04:27:25.075Z,33.17
2023-04-09T04:29:51.610Z,34.37
2023-04-09T04:32:18.187Z,32.33
2023-04-09T04:34:49.234Z,35.00
2023-04-09T04:37:16.098Z,35.60
2023-04-09T04:39:42.754Z,33.03
2023-04-09T04:42:09.474Z,35.03
2023-04-09T04:44:36.057Z,35.77
2023-04-09T04:47:02.672Z,35.77
2023-04-09T04:49:29.193Z,36.23
2023-04-09T04:51:55.825Z,35.83
2023-04-09T04:54:22.350Z,36.97
2023-04-09T04:56:48.937Z,36.47
2023-04-09T04:59:15.662Z,37.60
2023-04-09T05:01:42.554Z,39.63
2023-04-09T05:04:09.292Z,36.67
2023-04-09T05:06:35.903Z,39.37
2023-04-09T05:09:02.547Z,37.90
2023-04-09T05:11:29.121Z,39.57
2023-04-09T05:13:55.804Z,40.93
2023-04-09T05:16:22.599Z,35.13
2023-04-09T05:18:49.328Z,35.40
2023-04-09T05:21:16.050Z,36.33
2023-04-09T05:23:42.965Z,39.17
2023-04-09T05:26:09.594Z,40.87
2023-04-09T05:28:36.644Z,52.10
2023-04-09T05:31:03.314Z,40.67
2023-04-09T05:33:30.049Z,36.87
2023-04-09T05:35:56.701Z,36.27
2023-04-09T05:38:23.322Z,36.67
2023-04-09T05:40:50.032Z,35.93
2023-04-09T05:43:16.693Z,35.90
2023-04-09T05:45:43.380Z,33.13
2023-04-09T05:48:10.209Z,33.97
2023-04-09T05:50:51.056Z,36.50
2023-04-09T05:53:21.847Z,37.00
2023-04-09T05:55:51.346Z,38.30
2023-04-09T05:58:21.798Z,37.13
2023-04-09T06:00:48.453Z,39.77
2023-04-09T06:05:41.619Z,36.93
2023-04-09T06:08:08.281Z,38.10
2023-04-09T06:10:34.910Z,39.97
2023-04-09T06:13:02.016Z,36.93
2023-04-09T06:15:28.719Z,35.13
2023-04-09T06:17:57.461Z,38.00
2023-04-09T06:20:25.743Z,39.40
2023-04-09T06:22:52.308Z,38.03
2023-04-09T06:25:19.021Z,40.57
2023-04-09T06:27:45.695Z,40.53
2023-04-09T06:30:12.577Z,40.73
2023-04-09T06:32:47.245Z,38.57
2023-04-09T06:35:20.822Z,39.03
2023-04-09T06:37:47.370Z,39.57
2023-04-09T06:40:14.772Z,35.87
2023-04-09T06:42:41.353Z,36.47
2023-04-09T06:45:08.824Z,40.30
2023-04-09T06:47:36.413Z,41.43
2023-04-09T06:50:03.296Z,39.93
2023-04-09T06:52:29.851Z,39.27
2023-04-09T06:54:56.419Z,40.90
2023-04-09T06:57:23.060Z,39.53
2023-04-09T06:59:49.636Z,40.40
2023-04-09T07:02:16.354Z,38.97
2023-04-09T07:04:43.114Z,38.10
2023-04-09T07:07:09.691Z,39.07
2023-04-09T07:09:36.690Z,36.87
2023-04-09T07:12:03.452Z,40.00
2023-04-09T07:14:30.555Z,40.60
2023-04-09T07:16:57.259Z,41.80
2023-04-09T07:19:24.017Z,38.57
2023-04-09T07:21:51.115Z,37.93
2023-04-09T07:24:17.713Z,38.83
2023-04-09T07:26:44.446Z,39.20
2023-04-09T07:29:11.164Z,40.60
2023-04-09T07:31:37.881Z,37.13
2023-04-09T07:34:04.702Z,36.93
2023-04-09T07:36:31.961Z,36.07
2023-04-09T07:38:58.664Z,37.73
2023-04-09T07:41:25.434Z,37.43
2023-04-09T07:43:52.223Z,39.13
2023-04-09T07:46:21.076Z,35.40
2023-04-09T07:48:48.504Z,51.57
2023-04-09T07:51:15.482Z,36.90
2023-04-09T07:53:42.111Z,36.33
2023-04-09T07:56:08.935Z,33.50
2023-04-09T07:58:38.108Z,35.97
2023-04-09T08:01:05.015Z,32.40
2023-04-09T08:03:31.984Z,33.53
2023-04-09T08:05:58.745Z,32.70
2023-04-09T08:08:25.321Z,32.77
2023-04-09T08:10:51.941Z,32.70
2023-04-09T08:13:19.326Z,30.20
2023-04-09T08:15:45.842Z,29.73
2023-04-09T08:18:13.305Z,29.43
2023-04-09T08:20:45.613Z,29.63
2023-04-09T08:23:12.612Z,27.60
2023-04-09T08:25:39.421Z,29.53
2023-04-09T08:28:06.662Z,26.40
2023-04-09T08:30:34.515Z,24.33
2023-04-09T08:33:02.327Z,24.67
2023-04-09T08:35:31.262Z,24.27
2023-04-09T08:37:59.353Z,21.37
2023-04-09T08:40:25.985Z,22.93
2023-04-09T08:42:57.045Z,22.27
2023-04-09T08:45:24.262Z,20.00
2023-04-09T08:47:52.245Z,20.87
2023-04-09T08:50:19.665Z,20.37
2023-04-09T08:52:49.009Z,21.77
2023-04-09T08:55:15.799Z,21.50
2023-04-09T08:57:43.014Z,22.33
2023-04-09T09:00:10.217Z,22.03
2023-04-09T09:02:37.281Z,20.60
2023-04-09T09:05:04.112Z,21.37
2023-04-09T09:07:31.539Z,20.57
2023-04-09T09:10:04.568Z,18.67
2023-04-09T09:12:42.166Z,20.33
2023-04-09T09:15:41.368Z,19.27
2023-04-09T09:18:08.873Z,19.33
2023-04-09T09:20:35.517Z,19.33
2023-04-09T09:23:02.812Z,18.30
2023-04-09T09:25:30.835Z,18.87
2023-04-09T09:28:07.979Z,17.57
2023-04-09T09:30:36.466Z,15.77
2023-04-09T09:33:10.976Z,14.60
2023-04-09T09:35:49.464Z,16.27
2023-04-09T09:38:17.242Z,15.50
2023-04-09T09:40:44.561Z,14.80
2023-04-09T09:43:12.855Z,16.87
2023-04-09T09:45:41.869Z,16.60
2023-04-09T09:48:11.607Z,16.80
2023-04-09T09:50:42.312Z,15.83
2023-04-09T09:53:11.413Z,17.53
2023-04-09T09:55:49.550Z,15.60
2023-04-09T09:58:28.026Z,15.93
2023-04-09T10:00:57.619Z,17.60
2023-04-09T10:03:30.453Z,16.43
2023-04-09T10:05:58.726Z,17.63
2023-04-09T10:08:25.682Z,16.73
2023-04-09T10:10:53.013Z,16.10
2023-04-09T10:13:33.666Z,16.53
2023-04-09T10:16:00.449Z,15.13
2023-04-09T10:18:27.142Z,16.40
2023-04-09T10:21:05.970Z,16.00
2023-04-09T10:23:42.934Z,16.37
2023-04-09T10:26:10.367Z,17.93
2023-04-09T10:28:40.224Z,17.13
2023-04-09T10:31:07.876Z,18.00
2023-04-09T10:33:37.147Z,18.27
2023-04-09T10:36:06.011Z,19.67
2023-04-09T10:38:40.967Z,17.20
2023-04-09T10:41:30.532Z,17.50
2023-04-09T10:43:57.936Z,17.53
2023-04-09T10:46:34.919Z,16.07
2023-04-09T10:49:15.637Z,15.67
2023-04-09T10:51:42.651Z,16.33
2023-04-09T10:54:33.960Z,16.23
2023-04-09T10:57:15.808Z,15.90
2023-04-09T10:59:48.230Z,15.37
2023-04-09T11:02:39.977Z,15.73
2023-04-09T11:05:19.047Z,14.87
2023-04-09T11:07:54.917Z,16.60
2023-04-09T11:10:22.090Z,15.90
2023-04-09T11:12:49.548Z,15.57
2023-04-09T11:15:18.461Z,14.40
2023-04-09T11:17:47.225Z,15.80
2023-04-09T11:20:21.204Z,15.57
2023-04-09T11:22:49.667Z,15.37
2023-04-09T11:25:20.753Z,13.87
2023-04-09T11:27:47.857Z,15.87
2023-04-09T11:30:15.113Z,15.87
2023-04-09T11:32:41.823Z,15.87
2023-04-09T11:35:13.545Z,14.73
2023-04-09T11:37:43.086Z,15.07
2023-04-09T11:40:23.063Z,14.90
2023-04-09T11:42:51.804Z,14.73
2023-04-09T11:45:20.053Z,14.73
2023-04-09T11:47:47.420Z,13.57
2023-04-09T11:50:16.259Z,14.50
2023-04-09T11:52:43.505Z,13.10
2023-04-09T11:55:11.069Z,13.00
2023-04-09T11:57:45.997Z,14.43
2023-04-09T12:00:17.290Z,14.43
2023-04-09T12:02:48.946Z,13.37
2023-04-09T12:05:25.192Z,13.60
2023-04-09T12:10:30.500Z,15.57
2023-04-09T12:13:03.474Z,14.33
2023-04-09T12:15:35.200Z,14.18
2023-04-09T12:18:02.285Z,14.82
2023-04-09T12:20:50.666Z,12.25
2023-04-09T12:23:17.196Z,13.90
2023-04-09T12:25:45.462Z,13.95
2023-04-09T12:28:15.651Z,12.95
2023-04-09T12:30:43.292Z,13.25
2023-04-09T12:33:11.356Z,13.77
2023-04-09T12:35:38.645Z,13.02
2023-04-09T12:38:05.550Z,13.02
2023-04-09T12:40:32.386Z,12.50
2023-04-09T12:42:59.144Z,16.73
2023-04-09T12:45:26.031Z,13.65
2023-04-09T12:47:53.074Z,16.88
2023-04-09T12:50:19.978Z,14.50
2023-04-09T12:52:46.840Z,13.77
2023-04-09T12:55:14.572Z,13.18
2023-04-09T12:57:44.758Z,12.55
2023-04-09T13:00:12.602Z,13.43
2023-04-09T13:02:39.570Z,12.68
2023-04-09T13:05:06.857Z,12.65
2023-04-09T13:07:33.730Z,12.80
2023-04-09T13:10:00.483Z,13.05
2023-04-09T13:12:27.521Z,14.25
2023-04-09T13:14:55.108Z,13.95
2023-04-09T13:17:22.435Z,12.18
2023-04-09T13:19:50.191Z,13.57
2023-04-09T13:22:16.978Z,12.95
2023-04-09T13:24:43.580Z,13.27
2023-04-09T13:27:11.406Z,13.38
2023-04-09T13:29:38.834Z,17.40
2023-04-09T13:32:11.171Z,14.70
2023-04-09T13:34:39.349Z,13.50
2023-04-09T13:37:06.262Z,14.65
2023-04-09T13:39:33.264Z,15.07
2023-04-09T13:42:03.653Z,13.40
2023-04-09T13:44:35.359Z,12.98
2023-04-09T13:47:02.189Z,14.15
2023-04-09T13:49:30.509Z,13.48
2023-04-09T13:51:57.211Z,13.70
2023-04-09T13:54:23.785Z,13.63
2023-04-09T13:56:51.313Z,12.80
2023-04-09T13:59:18.194Z,13.18
2023-04-09T14:01:45.043Z,13.63
2023-04-09T14:04:11.941Z,12.95
2023-04-09T14:06:38.520Z,13.52
2023-04-09T14:09:05.369Z,14.73
2023-04-09T14:11:32.068Z,14.38
2023-04-09T14:13:58.680Z,13.43
2023-04-09T14:16:25.830Z,14.43
2023-04-09T14:18:52.907Z,14.10
2023-04-09T14:21:19.907Z,14.00
2023-04-09T14:23:46.547Z,14.93
2023-04-09T14:26:13.241Z,14.25
2023-04-09T14:28:39.926Z,13.88
2023-04-09T14:31:06.985Z,14.02
2023-04-09T14:33:33.693Z,13.48
2023-04-09T14:36:00.533Z,14.85
2023-04-09T14:38:27.484Z,14.50
2023-04-09T14:40:54.118Z,14.45
2023-04-09T14:43:20.706Z,14.07
2023-04-09T14:45:47.642Z,16.10
2023-04-09T14:48:14.224Z,14.20
2023-04-09T14:50:41.317Z,13.93
2023-04-09T14:53:07.933Z,14.05
2023-04-09T14:55:34.627Z,14.93
2023-04-09T14:58:03.827Z,15.18
2023-04-09T15:00:31.661Z,16.50
2023-04-09T15:02:58.533Z,15.23
2023-04-09T15:05:25.325Z,14.50
2023-04-09T15:07:52.112Z,14.40
2023-04-09T15:10:19.212Z,13.90
2023-04-09T15:12:45.895Z,13.95
2023-04-09T15:15:14.590Z,14.65
2023-04-09T15:17:41.307Z,15.07
2023-04-09T15:20:08.314Z,14.98
2023-04-09T15:22:34.956Z,15.77
2023-04-09T15:25:01.573Z,16.13
2023-04-09T15:27:28.186Z,15.27
2023-04-09T15:29:54.743Z,14.18
2023-04-09T15:32:21.499Z,14.73
2023-04-09T15:34:48.042Z,14.50
2023-04-09T15:37:14.632Z,13.95
2023-04-09T15:39:41.213Z,13.32
2023-04-09T15:42:10.302Z,13.52
2023-04-09T15:44:39.225Z,13.32
2023-04-09T15:47:05.820Z,13.75
2023-04-09T15:49:35.013Z,12.85
2023-04-09T15:52:01.653Z,12.70
2023-04-09T15:54:28.228Z,12.25
2023-04-09T15:56:54.852Z,14.70
2023-04-09T15:59:21.455Z,14.27
2023-04-09T16:01:48.795Z,13.65
2023-04-09T16:04:15.597Z,14.02
2023-04-09T16:06:42.300Z,16.90
2023-04-09T16:09:08.859Z,12.23
2023-04-09T16:11:36.460Z,13.15
2023-04-09T16:14:04.064Z,13.07
2023-04-09T16:16:30.654Z,13.77
2023-04-09T16:18:57.540Z,14.85
2023-04-09T16:21:24.174Z,14.88
2023-04-09T16:23:50.834Z,14.73
2023-04-09T16:26:17.406Z,14.98
2023-04-09T16:28:44.022Z,15.93
2023-04-09T16:31:10.724Z,16.08
2023-04-09T16:33:37.356Z,15.63
2023-04-09T16:36:04.111Z,16.90
2023-04-09T16:38:31.441Z,17.87
2023-04-09T16:40:58.229Z,17.43
2023-04-09T16:43:25.593Z,17.17
2023-04-09T16:45:52.406Z,17.40
2023-04-09T16:48:19.313Z,16.70
2023-04-09T16:50:45.986Z,16.63
2023-04-09T16:53:12.641Z,17.60
2023-04-09T16:55:39.286Z,17.60
2023-04-09T16:58:05.896Z,18.10
2023-04-09T17:00:32.673Z,18.50
2023-04-09T17:02:59.620Z,19.43
2023-04-09T17:05:26.408Z,18.03
2023-04-09T17:07:53.776Z,17.90
2023-04-09T17:10:20.940Z,18.60
2023-04-09T17:12:48.252Z,18.67
2023-04-09T17:15:14.936Z,18.40
2023-04-09T17:17:41.599Z,18.17
2023-04-09T17:20:08.669Z,17.37
2023-04-09T17:22:35.909Z,18.40
2023-04-09T17:25:02.640Z,19.47
2023-04-09T17:27:29.287Z,19.50
2023-04-09T17:29:56.173Z,19.80
2023-04-09T17:32:22.861Z,18.37
2023-04-09T17:34:49.647Z,19.00
2023-04-09T17:37:16.350Z,18.90
2023-04-09T17:39:43.062Z,20.30
2023-04-09T17:42:11.887Z,19.23
2023-04-09T17:44:38.907Z,19.53
2023-04-09T17:47:07.530Z,21.13
2023-04-09T17:49:34.499Z,21.40
2023-04-09T17:52:01.415Z,19.50
2023-04-09T17:54:33.797Z,19.80
2023-04-09T17:57:01.952Z,20.43
2023-04-09T17:59:29.158Z,20.50
2023-04-09T18:01:56.836Z,19.67
2023-04-09T18:04:24.880Z,19.63
2023-04-09T18:06:51.710Z,20.97
2023-04-09T18:09:18.929Z,20.20
2023-04-09T18:11:46.437Z,20.87
2023-04-09T18:14:13.164Z,20.23
2023-04-09T18:16:39.911Z,21.93
2023-04-09T18:19:07.092Z,25.13
2023-04-09T18:21:36.605Z,23.60
2023-04-09T18:24:03.892Z,21.77
2023-04-09T18:26:31.527Z,22.53
2023-04-09T18:29:00.768Z,22.83
2023-04-09T18:31:28.143Z,21.93
2023-04-09T18:33:54.962Z,21.77
2023-04-09T18:36:21.604Z,21.97
2023-04-09T18:38:48.387Z,22.90
2023-04-09T18:41:25.327Z,23.27
2023-04-09T18:43:52.476Z,21.93
2023-04-09T18:46:19.360Z,23.13
2023-04-09T18:48:47.260Z,22.60
2023-04-09T18:51:14.729Z,23.00
2023-04-09T18:53:42.089Z,22.20
2023-04-09T18:56:09.172Z,24.53
2023-04-09T18:58:36.476Z,23.23
2023-04-09T19:01:11.013Z,22.83
2023-04-09T19:03:38.154Z,24.33
2023-04-09T19:06:19.315Z,23.33
2023-04-09T19:08:47.415Z,23.37
2023-04-09T19:11:14.975Z,22.00
2023-04-09T19:13:41.602Z,23.57
2023-04-09T19:16:11.754Z,22.33
2023-04-09T19:18:38.376Z,22.60
2023-04-09T19:21:07.575Z,22.97
2023-04-09T19:23:34.823Z,22.20
2023-04-09T19:26:02.294Z,21.43
2023-04-09T19:28:29.112Z,22.53
2023-04-09T19:30:55.927Z,23.23
2023-04-09T19:33:23.705Z,22.70
2023-04-09T19:35:51.497Z,21.77
2023-04-09T19:38:19.154Z,21.60
2023-04-09T19:40:46.504Z,22.07
2023-04-09T19:43:14.051Z,20.83
2023-04-09T19:45:42.941Z,21.00
2023-04-09T19:48:09.867Z,21.07
2023-04-09T19:50:43.445Z,21.53
2023-04-09T19:53:10.966Z,21.60
2023-04-09T19:55:38.197Z,20.17
2023-04-09T19:58:05.710Z,20.63
2023-04-09T20:00:33.950Z,21.37
2023-04-09T20:03:00.723Z,20.93
2023-04-09T20:05:27.926Z,21.27
2023-04-09T20:07:54.776Z,20.10
2023-04-09T20:10:21.703Z,22.67
2023-04-09T20:12:49.665Z,27.67
2023-04-09T20:15:20.017Z,20.23
2023-04-09T20:17:50.721Z,20.73
2023-04-09T20:20:20.080Z,20.17
2023-04-09T20:22:55.663Z,19.40
2023-04-09T20:25:23.033Z,21.00
2023-04-09T20:27:50.492Z,19.53
2023-04-09T20:30:17.312Z,19.97
2023-04-09T20:32:43.968Z,22.97
2023-04-09T20:35:12.979Z,21.30
2023-04-09T20:37:39.633Z,19.53
2023-04-09T20:40:06.920Z,21.23
2023-04-09T20:42:33.644Z,20.07
2023-04-09T20:45:01.761Z,19.53
2023-04-09T20:47:28.707Z,21.40
2023-04-09T20:49:59.765Z,19.87
2023-04-09T20:52:29.559Z,20.60
2023-04-09T20:54:59.477Z,20.70
2023-04-09T20:57:26.030Z,20.57
2023-04-09T20:59:55.207Z,20.33
2023-04-09T21:02:22.117Z,20.67
2023-04-09T21:04:48.824Z,19.07
2023-04-09T21:07:15.776Z,21.03
2023-04-09T21:09:42.427Z,20.67
2023-04-09T21:12:09.038Z,20.17
2023-04-09T21:14:35.697Z,20.00
2023-04-09T21:17:02.383Z,20.03
2023-04-09T21:19:29.044Z,19.73
2023-04-09T21:21:55.636Z,20.43
2023-04-09T21:24:22.971Z,19.17
2023-04-09T21:26:52.097Z,19.97
2023-04-09T21:29:21.269Z,19.93
2023-04-09T21:31:48.974Z,19.53
2023-04-09T21:34:16.151Z,20.43
2023-04-09T21:36:45.333Z,19.70
2023-04-09T21:39:12.440Z,19.60
2023-04-09T21:41:39.567Z,19.63
2023-04-09T21:44:08.786Z,19.27
2023-04-09T21:46:38.435Z,20.87
2023-04-09T21:49:05.167Z,19.97
2023-04-09T21:51:32.446Z,19.70
2023-04-09T21:54:09.940Z,20.10
2023-04-09T21:56:37.023Z,22.20
2023-04-09T21:59:04.172Z,22.57
2023-04-09T22:01:31.653Z,19.70
2023-04-09T22:03:59.244Z,20.83
2023-04-09T22:06:27.393Z,18.70
2023-04-09T22:08:56.679Z,20.37
2023-04-09T22:11:28.469Z,20.80
2023-04-09T22:13:56.633Z,20.00
2023-04-09T22:16:23.651Z,19.67
2023-04-09T22:18:50.475Z,20.13
2023-04-09T22:21:17.315Z,20.27
2023-04-09T22:23:44.182Z,20.93
2023-04-09T22:26:10.919Z,20.93
2023-04-09T22:28:38.631Z,18.27
2023-04-09T22:31:06.036Z,20.50
2023-04-09T22:33:32.924Z,20.37
2023-04-09T22:35:59.718Z,19.67
2023-04-09T22:38:26.684Z,20.07
2023-04-09T22:40:53.522Z,18.63
2023-04-09T22:43:20.097Z,20.00
2023-04-09T22:45:57.402Z,20.80
2023-04-09T22:48:27.317Z,19.40
2023-04-09T22:50:53.932Z,19.73
2023-04-09T22:53:20.898Z,21.53
2023-04-09T22:55:51.754Z,20.80
2023-04-09T22:58:19.191Z,19.87
2023-04-09T23:00:47.257Z,20.03
2023-04-09T23:03:14.207Z,19.83
2023-04-09T23:05:41.332Z,20.23
2023-04-09T23:08:08.217Z,21.07
2023-04-09T23:10:35.109Z,20.50
2023-04-09T23:13:02.029Z,19.07
2023-04-09T23:15:28.830Z,19.97
2023-04-09T23:17:55.714Z,19.97
2023-04-09T23:20:22.546Z,20.00
2023-04-09T23:22:50.015Z,20.20
2023-04-09T23:25:17.012Z,18.33
2023-04-09T23:27:44.059Z,21.07
2023-04-09T23:30:11.374Z,21.80
2023-04-09T23:32:37.965Z,20.77
2023-04-09T23:35:04.882Z,21.87
2023-04-09T23:37:31.539Z,21.37
2023-04-09T23:39:58.374Z,20.73
2023-04-09T23:42:26.351Z,20.43
2023-04-09T23:44:52.954Z,21.67
2023-04-09T23:47:19.547Z,19.67
2023-04-09T23:49:46.842Z,20.17
2023-04-09T23:52:13.442Z,20.73
2023-04-09T23:54:48.991Z,20.93
2023-04-09T23:57:15.572Z,19.57
2023-04-09T23:59:42.183Z,21.07
